Time;durP1;ratioP1;P1;durP2;ratioP2;P2;SDS_P1;SDS_P2;PMS_P1;PMS_P2;Temp;Humidity;BMP_temperature;BMP_pressure;BME280_temperature;BME280_humidity;BME280_pressure;Samples;Min_cycle;Max_cycle;Signal;HPM_P1;HPM_P2
2022/01/12 00:50:58;;;;;;;3.80;1.77;;;3.30;91.40;;;;;;6111338;23;20025;-78
2022/01/12 01:05:46;;;;;;;2.78;1.45;;;3.30;91.50;;;;;;5948082;24;20069;-78
2022/01/12 01:09:03;;;;;;;3.83;1.80;;;3.30;91.60;;;;;;5862198;24;20061;-78
2022/01/12 06:46:39;;;;;;;2.70;1.20;;;3.50;92.60;;;;;;5919111;24;20028;-77
2022/01/12 07:04:58;;;;;;;3.47;1.52;;;3.70;92.70;;;;;;5885274;24;20082;-79
2022/01/12 07:07:24;;;;;;;3.83;1.63;;;3.60;92.60;;;;;;5802762;24;20093;-80
2022/01/12 07:09:50;;;;;;;3.70;1.63;;;3.60;92.60;;;;;;5820317;24;20050;-79
2022/01/12 07:12:17;;;;;;;3.60;1.35;;;3.70;92.70;;;;;;5783334;24;20031;-79
2022/01/12 07:14:43;;;;;;;2.17;1.17;;;3.60;92.70;;;;;;5859863;24;20021;-79
2022/01/12 07:17:10;;;;;;;4.85;2.05;;;3.70;92.70;;;;;;5923552;24;20021;-78
2022/01/12 07:19:36;;;;;;;3.78;1.60;;;3.70;92.80;;;;;;5923543;24;20066;-79
2022/01/12 07:22:02;;;;;;;2.42;1.20;;;3.70;92.80;;;;;;5923177;24;20020;-78
2022/01/12 07:24:28;;;;;;;4.75;2.10;;;3.70;92.80;;;;;;5901051;24;20135;-79
2022/01/12 07:26:54;;;;;;;4.68;1.75;;;3.70;92.80;;;;;;5900661;24;20024;-79
2022/01/12 07:29:19;;;;;;;2.97;1.48;;;3.70;92.80;;;;;;5906783;24;20040;-78
2022/01/12 07:31:46;;;;;;;3.42;1.50;;;3.80;92.80;;;;;;5934331;23;20419;-78
2022/01/12 07:34:14;;;;;;;4.13;1.83;;;3.60;92.80;;;;;;6059340;23;20011;-79
2022/01/12 07:36:41;;;;;;;4.50;1.58;;;3.70;92.80;;;;;;6035741;23;20012;-79
2022/01/12 07:39:07;;;;;;;3.08;1.63;;;3.70;92.80;;;;;;6158140;23;20207;-78
2022/01/12 07:41:33;;;;;;;3.08;1.30;;;3.70;92.80;;;;;;6274979;22;20063;-78
2022/01/12 07:43:59;;;;;;;5.35;2.28;;;3.80;92.80;;;;;;6336935;22;20007;-75
2022/01/12 07:46:25;;;;;;;2.63;1.40;;;3.80;92.80;;;;;;6341673;22;20095;-75
2022/01/12 07:48:50;;;;;;;3.30;1.38;;;3.80;93.10;;;;;;6330841;22;20388;-75
2022/01/12 07:51:16;;;;;;;3.30;1.70;;;3.80;92.90;;;;;;6306946;22;20007;-78
2022/01/12 07:53:42;;;;;;;4.55;1.90;;;3.80;92.90;;;;;;6304311;22;20011;-77
2022/01/12 07:56:08;;;;;;;3.00;1.33;;;3.80;92.90;;;;;;6305575;22;20101;-78
2022/01/12 07:58:33;;;;;;;4.15;1.50;;;3.80;92.90;;;;;;6279089;22;20163;-78
2022/01/12 08:00:59;;;;;;;3.05;1.75;;;3.80;92.90;;;;;;6306362;22;20311;-77
2022/01/12 08:03:25;;;;;;;3.30;1.60;;;3.80;92.90;;;;;;6305874;22;20427;-78
2022/01/12 08:05:51;;;;;;;3.13;1.35;;;3.80;92.90;;;;;;6278112;22;20004;-76
2022/01/12 08:08:17;;;;;;;3.65;1.45;;;3.90;92.90;;;;;;6277801;22;20469;-76
2022/01/12 08:10:43;;;;;;;3.60;1.45;;;3.90;92.90;;;;;;6280266;22;20013;-78
2022/01/12 08:13:08;;;;;;;2.55;1.05;;;3.90;92.90;;;;;;6284769;22;20343;-77
2022/01/12 08:15:34;;;;;;;4.55;1.88;;;3.90;92.90;;;;;;6277836;22;20043;-77
2022/01/12 08:18:00;;;;;;;5.10;1.70;;;3.90;92.90;;;;;;6276880;22;20019;-77
2022/01/12 08:20:28;;;;;;;4.25;1.73;;;3.90;93.00;;;;;;6303669;22;20011;-77
2022/01/12 08:22:55;;;;;;;2.20;1.10;;;3.80;92.90;;;;;;6292957;22;20423;-79
2022/01/12 08:25:21;;;;;;;2.63;1.35;;;3.90;93.00;;;;;;6296316;22;20095;-79
2022/01/12 08:27:47;;;;;;;3.80;1.65;;;3.90;93.00;;;;;;6284547;22;20039;-78
2022/01/12 08:30:17;;;;;;;3.60;1.50;;;3.90;93.00;;;;;;6337275;22;20011;-80
2022/01/12 08:32:46;;;;;;;5.05;1.90;;;3.90;92.90;;;;;;6335563;22;20416;-79
2022/01/12 08:35:12;;;;;;;3.55;1.30;;;4.00;93.00;;;;;;6361623;22;19999;-81
2022/01/12 08:37:40;;;;;;;3.95;1.67;;;3.90;92.90;;;;;;6335487;22;20023;-80
2022/01/12 08:40:07;;;;;;;4.43;1.70;;;3.90;92.90;;;;;;6361222;22;20078;-79
2022/01/12 08:42:33;;;;;;;5.50;1.92;;;4.00;92.90;;;;;;6335255;22;20092;-79
2022/01/12 08:45:00;;;;;;;3.30;1.50;;;3.90;92.90;;;;;;6309256;22;20092;-79
2022/01/12 08:47:27;;;;;;;3.33;1.25;;;3.90;92.90;;;;;;6335668;22;20423;-78
2022/01/12 08:49:53;;;;;;;2.60;1.48;;;3.90;93.20;;;;;;6309261;22;20022;-79
2022/01/12 08:52:24;;;;;;;2.33;0.90;;;3.90;93.00;;;;;;6336795;22;19999;-79
2022/01/12 08:54:50;;;;;;;2.23;1.10;;;3.90;93.00;;;;;;6335474;22;20007;-79
2022/01/12 08:57:17;;;;;;;5.65;1.80;;;3.90;92.90;;;;;;6361465;22;20275;-80
2022/01/12 08:59:44;;;;;;;6.25;1.73;;;4.10;93.00;;;;;;6335089;22;20091;-79
2022/01/12 09:02:13;;;;;;;2.85;1.20;;;4.10;93.00;;;;;;6309220;22;20063;-78
2022/01/12 09:04:39;;;;;;;4.15;1.63;;;4.10;92.90;;;;;;6335487;22;20022;-77
2022/01/12 09:07:05;;;;;;;4.75;1.88;;;4.10;92.90;;;;;;6361742;22;20022;-78
2022/01/12 09:09:31;;;;;;;3.63;1.38;;;4.10;92.90;;;;;;6333477;22;20002;-77
2022/01/12 09:11:57;;;;;;;4.15;1.70;;;4.10;92.90;;;;;;6361500;22;20011;-78
2022/01/12 09:14:23;;;;;;;5.05;1.83;;;4.00;92.90;;;;;;6309005;22;20327;-79
2022/01/12 09:16:54;;;;;;;6.38;1.90;;;4.10;93.00;;;;;;6302473;22;20043;-77
2022/01/12 09:19:21;;;;;;;4.72;1.30;;;4.10;93.00;;;;;;6302987;22;20035;-77
2022/01/12 09:21:47;;;;;;;5.15;1.70;;;4.10;92.90;;;;;;6303131;22;20049;-78
2022/01/12 09:24:16;;;;;;;5.03;1.40;;;4.10;92.90;;;;;;6302696;22;20339;-77
2022/01/12 09:26:42;;;;;;;2.38;1.10;;;4.20;92.90;;;;;;6250693;22;20118;-77
2022/01/12 09:29:08;;;;;;;3.63;1.70;;;4.20;92.90;;;;;;6271963;22;20095;-78
2022/01/12 09:31:35;;;;;;;6.63;1.90;;;4.20;92.90;;;;;;6272681;22;20007;-80
2022/01/12 09:34:02;;;;;;;4.13;1.42;;;4.20;92.90;;;;;;6277034;22;20004;-79
2022/01/12 09:36:28;;;;;;;3.58;1.50;;;4.20;92.80;;;;;;6276711;22;20019;-79
2022/01/12 09:38:54;;;;;;;5.00;1.65;;;4.20;93.10;;;;;;6274397;22;20466;-79
2022/01/12 09:41:20;;;;;;;5.43;1.85;;;4.20;92.90;;;;;;6269165;22;20605;-79
2022/01/12 09:43:50;;;;;;;5.00;2.05;;;4.20;92.90;;;;;;6303901;22;20007;-81
2022/01/12 09:46:16;;;;;;;5.00;1.70;;;4.20;93.20;;;;;;6304210;22;20092;-79
2022/01/12 09:48:42;;;;;;;3.88;1.27;;;4.30;92.90;;;;;;6331590;22;20007;-79
2022/01/12 09:51:08;;;;;;;3.53;1.45;;;4.20;92.90;;;;;;6362503;22;20017;-78
2022/01/12 09:53:36;;;;;;;3.35;1.27;;;4.40;92.80;;;;;;6336286;22;20003;-79
2022/01/12 09:56:16;;;;;;;5.03;1.50;;;4.30;93.00;;;;;;6362365;22;20003;-79
2022/01/12 09:58:43;;;;;;;3.50;1.40;;;4.30;92.80;;;;;;6310239;22;20082;-77
2022/01/12 10:01:09;;;;;;;6.88;2.10;;;4.40;92.80;;;;;;6336821;22;20014;-79
2022/01/12 10:03:36;;;;;;;4.05;1.60;;;4.40;92.80;;;;;;6336315;22;20002;-77
2022/01/12 10:06:13;;;;;;;3.83;1.60;;;4.40;92.80;;;;;;6336143;22;20418;-78
2022/01/12 10:08:39;;;;;;;5.75;2.40;;;4.40;92.80;;;;;;6362527;22;20030;-78
2022/01/12 10:11:08;;;;;;;4.32;1.88;;;4.40;92.90;;;;;;6335880;22;20040;-79
2022/01/12 10:13:36;;;;;;;4.22;1.98;;;4.40;92.80;;;;;;6336230;22;20003;-80
2022/01/12 10:16:12;;;;;;;2.95;1.40;;;4.40;92.90;;;;;;6361986;22;20053;-78
2022/01/12 10:18:51;;;;;;;3.03;1.42;;;4.40;92.90;;;;;;6362160;22;19995;-79
2022/01/12 10:21:32;;;;;;;4.05;1.65;;;4.40;92.80;;;;;;6335942;22;19999;-79
2022/01/12 10:24:01;;;;;;;3.10;1.40;;;4.50;92.80;;;;;;6338201;22;20006;-80
2022/01/12 10:26:32;;;;;;;2.97;1.20;;;4.50;92.80;;;;;;6310167;22;19999;-80
2022/01/12 10:29:10;;;;;;;3.38;1.58;;;4.50;92.80;;;;;;6336002;22;20330;-79
2022/01/12 10:31:56;;;;;;;5.25;2.00;;;4.60;92.80;;;;;;6336053;22;20033;-78
2022/01/12 10:34:26;;;;;;;5.75;2.13;;;4.60;92.80;;;;;;6365001;22;19999;-80
2022/01/12 10:36:54;;;;;;;2.78;1.40;;;4.60;92.70;;;;;;6365829;22;20018;-78
2022/01/12 10:39:22;;;;;;;3.53;1.58;;;4.60;92.80;;;;;;6359576;22;19995;-79
2022/01/12 10:41:53;;;;;;;5.05;1.83;;;4.60;92.80;;;;;;6362617;22;20072;-81
2022/01/12 10:44:21;;;;;;;4.33;1.60;;;4.60;92.70;;;;;;6359600;22;20005;-79
2022/01/12 10:46:47;;;;;;;5.07;2.15;;;4.60;92.70;;;;;;6336106;22;20006;-78
2022/01/12 10:49:20;;;;;;;6.05;2.05;;;4.70;92.70;;;;;;6334073;22;20330;-77
2022/01/12 10:51:55;;;;;;;4.90;1.63;;;4.70;92.70;;;;;;6336071;22;20081;-77
2022/01/12 10:54:21;;;;;;;5.28;1.70;;;4.70;92.70;;;;;;6335745;22;20033;-77
2022/01/12 10:56:46;;;;;;;3.53;1.50;;;4.70;92.70;;;;;;6362071;22;20059;-78
2022/01/12 10:59:37;;;;;;;4.63;1.70;;;4.70;92.70;;;;;;6309879;22;20049;-78
2022/01/12 11:02:03;;;;;;;3.58;1.40;;;4.80;92.70;;;;;;6304565;22;20098;-78
2022/01/12 11:04:29;;;;;;;2.58;1.40;;;4.80;92.70;;;;;;6277730;22;20516;-79
2022/01/12 11:06:55;;;;;;;4.07;1.70;;;4.90;92.70;;;;;;6252701;22;20308;-77
2022/01/12 11:09:20;;;;;;;2.53;1.17;;;4.80;92.60;;;;;;6278432;22;20483;-78
2022/01/12 11:11:46;;;;;;;4.55;1.60;;;4.90;92.70;;;;;;6277624;22;20073;-78
2022/01/12 11:14:12;;;;;;;5.68;2.00;;;4.90;92.60;;;;;;6277438;22;20336;-79
2022/01/12 11:16:38;;;;;;;5.07;2.03;;;4.90;92.60;;;;;;6251833;22;20030;-79
2022/01/12 11:19:06;;;;;;;4.57;1.85;;;5.00;92.60;;;;;;6277755;22;20482;-78
2022/01/12 11:21:41;;;;;;;3.33;1.55;;;4.90;92.60;;;;;;6277549;22;20445;-79
2022/01/12 11:24:11;;;;;;;4.80;1.83;;;4.90;92.60;;;;;;6277933;22;20010;-79
2022/01/12 11:26:37;;;;;;;4.20;1.65;;;4.90;92.60;;;;;;6277169;22;20493;-79
2022/01/12 11:29:04;;;;;;;3.15;1.48;;;4.90;92.60;;;;;;6277308;22;20011;-79
2022/01/12 11:31:34;;;;;;;5.10;1.60;;;5.00;92.60;;;;;;6277541;22;20037;-78
2022/01/12 11:33:59;;;;;;;5.90;1.92;;;5.00;92.60;;;;;;6331736;22;20389;-77
2022/01/12 11:36:34;;;;;;;2.58;1.35;;;5.00;92.50;;;;;;6361418;22;20089;-77
2022/01/12 11:39:04;;;;;;;4.35;1.63;;;5.00;92.50;;;;;;6360686;22;20014;-77
2022/01/12 11:41:32;;;;;;;4.07;1.70;;;5.00;92.60;;;;;;6335698;22;20003;-78
2022/01/12 11:44:07;;;;;;;3.40;1.50;;;5.00;92.60;;;;;;6361683;22;20007;-77
2022/01/12 11:46:46;;;;;;;5.55;1.80;;;5.00;92.60;;;;;;6361808;22;20076;-77
2022/01/12 11:49:24;;;;;;;8.73;1.88;;;5.00;92.60;;;;;;6335348;22;20046;-77
2022/01/12 11:51:50;;;;;;;3.47;1.40;;;5.10;92.50;;;;;;6337786;22;20014;-78
2022/01/12 11:54:19;;;;;;;3.08;1.38;;;5.10;92.60;;;;;;6335339;22;20015;-77
2022/01/12 11:56:57;;;;;;;3.03;1.50;;;5.10;92.60;;;;;;6337436;22;20006;-77
2022/01/12 11:59:27;;;;;;;3.40;1.35;;;5.10;92.60;;;;;;6336945;22;20011;-77
2022/01/12 12:02:15;;;;;;;2.97;1.35;;;5.10;92.60;;;;;;6334820;22;20061;-77
2022/01/12 12:04:54;;;;;;;5.63;1.98;;;5.10;92.60;;;;;;6337160;22;20007;-77
2022/01/12 12:07:19;;;;;;;4.70;1.90;;;5.20;92.50;;;;;;6337248;22;20010;-77
2022/01/12 12:09:52;;;;;;;3.03;1.30;;;5.20;92.50;;;;;;6335520;22;20314;-77
2022/01/12 12:12:21;;;;;;;4.05;1.58;;;5.20;92.50;;;;;;6361144;22;20006;-77
2022/01/12 12:14:50;;;;;;;4.70;1.70;;;5.10;92.50;;;;;;6361909;22;20006;-77
2022/01/12 12:17:18;;;;;;;6.63;2.00;;;5.20;92.60;;;;;;6336194;22;20018;-78
2022/01/12 12:19:45;;;;;;;5.25;2.10;;;5.20;92.60;;;;;;6361912;22;20021;-77
2022/01/12 12:22:16;;;;;;;5.80;2.15;;;5.20;92.50;;;;;;6335760;22;20038;-76
2022/01/12 12:24:43;;;;;;;4.10;1.85;;;5.20;92.50;;;;;;6361758;22;20043;-76
2022/01/12 12:27:11;;;;;;;3.80;1.45;;;5.20;92.50;;;;;;6336975;22;20120;-77
2022/01/12 12:29:37;;;;;;;4.35;1.80;;;5.30;92.40;;;;;;6337383;22;20011;-78
2022/01/12 12:32:05;;;;;;;4.60;1.60;;;5.40;92.40;;;;;;6335599;22;20013;-77
2022/01/12 12:34:33;;;;;;;5.03;1.90;;;5.40;92.40;;;;;;6335220;22;20087;-78
2022/01/12 12:37:03;;;;;;;6.68;2.33;;;5.40;92.30;;;;;;6337259;22;20007;-79
2022/01/12 12:39:32;;;;;;;3.47;1.60;;;5.30;92.30;;;;;;6336724;22;20006;-80
2022/01/12 12:41:58;;;;;;;3.47;1.52;;;5.30;92.30;;;;;;6361437;22;20009;-81
2022/01/12 12:44:28;;;;;;;2.95;1.20;;;5.20;92.40;;;;;;6309021;22;20071;-80
2022/01/12 12:47:16;;;;;;;4.55;1.88;;;5.30;92.40;;;;;;6335457;22;20010;-81
2022/01/12 12:49:52;;;;;;;5.15;1.88;;;5.30;92.50;;;;;;6309134;22;20010;-81
2022/01/12 12:52:24;;;;;;;3.25;1.63;;;5.40;92.40;;;;;;6335932;22;20072;-81
2022/01/12 12:54:51;;;;;;;3.60;1.55;;;5.30;92.40;;;;;;6335092;22;20018;-80
2022/01/12 12:57:21;;;;;;;4.88;2.00;;;5.30;92.40;;;;;;6361536;22;20007;-80
2022/01/12 12:59:51;;;;;;;3.58;1.67;;;5.30;92.30;;;;;;6310408;22;20450;-79
2022/01/12 13:02:17;;;;;;;4.70;2.08;;;5.20;92.40;;;;;;6309137;22;19995;-79
2022/01/12 13:04:44;;;;;;;7.82;2.40;;;5.30;92.40;;;;;;6335660;22;20059;-79
2022/01/12 13:07:14;;;;;;;4.93;2.08;;;5.40;92.40;;;;;;6335306;22;19999;-79
2022/01/12 13:09:40;;;;;;;5.55;1.95;;;5.40;92.40;;;;;;6335230;22;20537;-78
2022/01/12 13:12:06;;;;;;;4.65;2.03;;;5.40;92.30;;;;;;6334853;22;20011;-79
2022/01/12 13:14:42;;;;;;;4.45;1.67;;;5.40;92.30;;;;;;6335061;22;20096;-77
2022/01/12 13:17:08;;;;;;;4.20;1.77;;;5.30;92.40;;;;;;6360891;22;20017;-78
2022/01/12 13:22:27;;;;;;;3.92;1.58;;;5.20;92.40;;;;;;6334298;22;20015;-79
2022/01/12 13:24:54;;;;;;;4.10;1.60;;;5.30;92.40;;;;;;6361715;22;20007;-79
2022/01/12 13:27:21;;;;;;;4.78;2.03;;;5.30;92.40;;;;;;6361627;22;20038;-78
2022/01/12 13:29:51;;;;;;;5.00;1.90;;;5.30;92.40;;;;;;6335557;22;20078;-79
2022/01/12 13:32:16;;;;;;;4.65;1.52;;;5.30;92.40;;;;;;6335310;22;20015;-79
2022/01/12 13:34:54;;;;;;;3.33;1.67;;;5.20;92.40;;;;;;6361349;22;20438;-78
2022/01/12 13:37:27;;;;;;;4.03;1.92;;;5.30;92.40;;;;;;6336527;22;20093;-79
2022/01/12 13:40:04;;;;;;;3.97;1.73;;;5.20;92.40;;;;;;6336971;22;20003;-78
2022/01/12 13:42:30;;;;;;;5.00;2.10;;;5.20;92.40;;;;;;6335271;22;20014;-79
2022/01/12 13:45:07;;;;;;;4.05;1.83;;;5.10;92.40;;;;;;6361248;22;20003;-78
2022/01/12 13:47:35;;;;;;;4.63;2.13;;;5.10;92.40;;;;;;6335136;22;20017;-80
2022/01/12 13:50:05;;;;;;;4.63;1.90;;;5.20;92.50;;;;;;6360896;22;20424;-77
2022/01/12 13:52:31;;;;;;;5.45;1.83;;;5.20;92.40;;;;;;6334990;22;20126;-77
2022/01/12 13:55:09;;;;;;;4.82;2.05;;;5.20;92.30;;;;;;6335450;22;20087;-76
2022/01/12 13:57:35;;;;;;;4.72;1.90;;;5.20;92.30;;;;;;6334770;22;20011;-77
2022/01/12 14:00:00;;;;;;;5.38;2.30;;;5.20;92.30;;;;;;6308619;22;20002;-78
2022/01/12 14:02:29;;;;;;;4.28;1.95;;;5.20;92.30;;;;;;6336684;22;19995;-75
2022/01/12 14:05:07;;;;;;;3.47;1.50;;;5.10;92.30;;;;;;6360297;22;19999;-77
2022/01/12 14:07:40;;;;;;;3.15;1.50;;;5.10;92.40;;;;;;6334693;22;20018;-76
2022/01/12 14:10:09;;;;;;;5.35;2.05;;;5.10;92.40;;;;;;6336345;22;20011;-79
2022/01/12 14:12:35;;;;;;;4.85;2.00;;;5.20;92.40;;;;;;6334744;22;20102;-77
2022/01/12 14:15:05;;;;;;;5.75;2.33;;;5.10;92.40;;;;;;6334524;22;20507;-79
2022/01/12 14:17:37;;;;;;;4.55;2.00;;;5.10;92.40;;;;;;6334672;22;20015;-78
2022/01/12 14:20:07;;;;;;;4.57;1.90;;;5.00;92.40;;;;;;6335912;22;20007;-76
2022/01/12 14:22:53;;;;;;;7.13;2.38;;;5.00;92.40;;;;;;6308293;22;20090;-77
2022/01/12 14:25:41;;;;;;;7.10;2.33;;;5.00;92.40;;;;;;6335425;22;20014;-77
2022/01/12 14:28:09;;;;;;;5.07;2.10;;;5.00;92.40;;;;;;6337343;22;20308;-77
2022/01/12 14:30:37;;;;;;;6.13;2.13;;;5.00;92.40;;;;;;6337484;22;20041;-77
2022/01/12 14:33:05;;;;;;;5.50;2.17;;;5.00;92.40;;;;;;6335520;22;20018;-76
2022/01/12 14:35:30;;;;;;;5.70;2.30;;;5.00;92.40;;;;;;6337682;22;20006;-76
2022/01/12 14:37:57;;;;;;;5.43;2.63;;;5.00;92.40;;;;;;6361854;22;20011;-78
2022/01/12 14:40:23;;;;;;;6.13;2.33;;;4.90;92.30;;;;;;6310360;22;20345;-78
2022/01/12 14:42:53;;;;;;;6.00;2.58;;;4.90;92.30;;;;;;6335909;22;20005;-77
2022/01/12 14:45:24;;;;;;;5.43;2.42;;;4.90;92.40;;;;;;6337504;22;20002;-78
2022/01/12 14:47:51;;;;;;;6.53;2.30;;;4.90;92.40;;;;;;6335671;22;20002;-77
2022/01/12 14:50:19;;;;;;;6.38;2.25;;;4.80;92.40;;;;;;6337967;22;20010;-77
2022/01/12 14:52:46;;;;;;;5.80;2.10;;;4.90;92.40;;;;;;6309728;22;19998;-77
2022/01/12 14:55:12;;;;;;;4.95;2.33;;;4.80;92.40;;;;;;6363101;22;19998;-78
2022/01/12 14:57:39;;;;;;;5.60;2.33;;;4.80;92.40;;;;;;6369425;22;20442;-78
2022/01/12 15:00:08;;;;;;;6.55;2.60;;;4.80;92.40;;;;;;6358483;22;20010;-77
2022/01/12 15:02:34;;;;;;;6.07;2.50;;;4.80;92.40;;;;;;6337855;22;20074;-76
2022/01/12 15:05:00;;;;;;;5.55;2.63;;;4.80;92.30;;;;;;6337750;22;20442;-77
2022/01/12 15:07:27;;;;;;;9.07;2.80;;;4.70;92.30;;;;;;6362531;22;20438;-82
2022/01/12 15:09:58;;;;;;;6.13;2.45;;;4.60;92.30;;;;;;6309022;22;20479;-81
2022/01/12 15:12:31;;;;;;;5.47;2.30;;;4.60;92.40;;;;;;6335702;22;20312;-80
2022/01/12 15:15:00;;;;;;;5.18;2.47;;;4.70;92.40;;;;;;6337325;22;20034;-81
2022/01/12 15:17:28;;;;;;;5.15;2.40;;;4.60;92.40;;;;;;6309719;22;20034;-80
2022/01/12 15:20:02;;;;;;;5.60;2.20;;;4.60;92.40;;;;;;6309917;22;20034;-81
2022/01/12 15:22:28;;;;;;;5.70;2.38;;;4.50;92.40;;;;;;6310859;22;19999;-83
2022/01/12 15:24:56;;;;;;;6.10;2.38;;;4.60;92.40;;;;;;6306213;22;20426;-81
2022/01/12 15:27:51;;;;;;;7.65;2.95;;;4.60;92.40;;;;;;6307366;22;20038;-79
2022/01/12 15:30:18;;;;;;;6.20;2.38;;;4.60;92.40;;;;;;6334319;22;20014;-79
2022/01/12 15:32:45;;;;;;;5.18;2.35;;;4.50;92.30;;;;;;6361634;22;20030;-79
2022/01/12 15:35:11;;;;;;;6.47;2.58;;;4.60;92.40;;;;;;6335546;22;20018;-79
2022/01/12 15:37:37;;;;;;;5.85;2.22;;;4.50;92.40;;;;;;6335311;22;20011;-79
2022/01/12 15:40:05;;;;;;;5.53;2.40;;;4.50;92.40;;;;;;6335820;22;20318;-77
2022/01/12 15:42:31;;;;;;;5.60;2.40;;;4.50;92.40;;;;;;6337211;22;19995;-80
2022/01/12 15:44:58;;;;;;;4.32;2.08;;;4.40;92.40;;;;;;6338798;22;20017;-80
2022/01/12 15:47:25;;;;;;;6.25;2.03;;;4.50;92.40;;;;;;6335559;22;20006;-79
2022/01/12 15:49:51;;;;;;;6.80;2.38;;;4.40;92.40;;;;;;6336074;22;20325;-80
2022/01/12 15:52:18;;;;;;;5.43;2.40;;;4.40;92.40;;;;;;6335524;22;20003;-81
2022/01/12 15:54:45;;;;;;;4.88;1.75;;;4.50;92.40;;;;;;6310079;22;20017;-79
2022/01/12 15:57:11;;;;;;;5.15;2.22;;;4.50;92.40;;;;;;6332567;22;20013;-78
2022/01/12 15:59:38;;;;;;;4.72;1.95;;;4.50;92.40;;;;;;6337089;22;20005;-78
2022/01/12 16:02:04;;;;;;;6.50;2.15;;;4.50;92.40;;;;;;6335402;22;19998;-77
2022/01/12 16:04:30;;;;;;;7.38;2.83;;;4.50;92.40;;;;;;6361571;22;20002;-77
2022/01/12 16:06:56;;;;;;;5.55;2.45;;;4.50;92.40;;;;;;6335503;22;19998;-77
2022/01/12 16:09:22;;;;;;;5.80;2.00;;;4.50;92.40;;;;;;6336066;22;20022;-79
2022/01/12 16:11:49;;;;;;;9.00;2.33;;;4.40;92.40;;;;;;6335322;22;20002;-77
2022/01/12 16:14:15;;;;;;;5.47;2.00;;;4.40;92.40;;;;;;6361585;22;20007;-77
2022/01/12 16:16:41;;;;;;;3.72;1.90;;;4.40;92.40;;;;;;6335414;22;20010;-77
2022/01/12 16:19:07;;;;;;;3.20;1.52;;;4.40;92.40;;;;;;6361681;22;20017;-77
2022/01/12 16:21:42;;;;;;;5.28;2.20;;;4.40;92.50;;;;;;6335169;22;20010;-76
2022/01/12 16:24:12;;;;;;;6.25;2.22;;;4.40;92.50;;;;;;6360988;22;20055;-77
2022/01/12 16:26:39;;;;;;;5.15;2.17;;;4.40;92.40;;;;;;6335390;22;20451;-77
2022/01/12 16:29:07;;;;;;;4.88;1.77;;;4.40;92.40;;;;;;6309330;22;20035;-77
2022/01/12 16:31:33;;;;;;;4.53;1.67;;;4.40;92.50;;;;;;6309439;22;20034;-77
2022/01/12 16:34:00;;;;;;;6.80;2.78;;;4.40;92.40;;;;;;6362111;22;19999;-77
2022/01/12 16:36:28;;;;;;;6.07;2.60;;;4.40;92.40;;;;;;6335156;22;20132;-77
2022/01/12 16:38:57;;;;;;;6.53;2.45;;;4.50;92.50;;;;;;6335751;22;20007;-77
2022/01/12 16:41:22;;;;;;;5.82;2.50;;;4.40;92.40;;;;;;6335157;22;20038;-77
2022/01/12 16:43:48;;;;;;;6.78;2.53;;;4.30;92.40;;;;;;6335406;22;19999;-77
2022/01/12 16:46:18;;;;;;;4.60;2.05;;;4.40;92.40;;;;;;6337276;22;20441;-77
2022/01/12 16:48:44;;;;;;;6.85;2.00;;;4.30;92.40;;;;;;6337058;22;20085;-77
2022/01/12 16:51:10;;;;;;;8.10;2.97;;;4.40;92.40;;;;;;6337564;22;20314;-78
2022/01/12 16:53:37;;;;;;;5.55;2.50;;;4.40;92.50;;;;;;6361385;22;20078;-78
2022/01/12 16:56:06;;;;;;;5.72;2.20;;;4.40;92.40;;;;;;6336947;22;19995;-75
2022/01/12 16:58:32;;;;;;;6.70;2.58;;;4.40;92.40;;;;;;6335031;22;20367;-79
2022/01/12 17:00:58;;;;;;;7.10;2.83;;;4.30;92.40;;;;;;6361617;22;20002;-78
2022/01/12 17:03:24;;;;;;;7.93;3.42;;;4.40;92.40;;;;;;6335330;22;20094;-77
2022/01/12 17:05:49;;;;;;;8.77;3.25;;;4.30;92.40;;;;;;6335486;22;20426;-77
2022/01/12 17:08:15;;;;;;;7.03;3.08;;;4.30;92.40;;;;;;6335086;22;20418;-77
2022/01/12 17:10:41;;;;;;;7.25;2.95;;;4.30;92.40;;;;;;6335258;22;20010;-77
2022/01/12 17:13:07;;;;;;;8.07;3.10;;;4.30;92.40;;;;;;6335247;22;20003;-77
2022/01/12 17:16:16;;;;;;;8.82;3.28;;;4.30;92.40;;;;;;6335229;22;19999;-80
2022/01/12 17:23:07;;;;;;;7.93;3.60;;;4.20;92.40;;;;;;6206455;23;20027;-79
2022/01/12 17:25:34;;;;;;;7.05;2.80;;;4.20;92.40;;;;;;6210550;23;20042;-78
2022/01/12 17:28:29;;;;;;;8.07;2.90;;;4.20;92.40;;;;;;6211557;23;20024;-78
2022/01/12 17:30:55;;;;;;;8.35;3.30;;;4.20;92.40;;;;;;6185779;23;20013;-76
2022/01/12 17:33:23;;;;;;;8.70;3.53;;;4.20;92.40;;;;;;6161209;23;20439;-78
2022/01/12 17:35:49;;;;;;;7.88;3.42;;;4.20;92.40;;;;;;6210836;23;20012;-78
2022/01/12 17:38:16;;;;;;;7.53;3.17;;;4.20;92.50;;;;;;6210685;23;20552;-78
2022/01/12 17:40:47;;;;;;;9.05;2.95;;;4.10;92.40;;;;;;6210822;23;20040;-78
2022/01/12 17:43:21;;;;;;;6.95;2.78;;;4.20;92.50;;;;;;6210811;23;20139;-79
2022/01/12 17:45:48;;;;;;;6.57;2.80;;;4.10;92.50;;;;;;6211153;23;20020;-78
2022/01/12 17:48:27;;;;;;;7.20;2.88;;;4.10;92.50;;;;;;6210692;23;20023;-78
2022/01/12 17:50:56;;;;;;;6.93;2.70;;;4.10;92.50;;;;;;6264000;22;20015;-78
2022/01/12 17:53:24;;;;;;;8.50;3.35;;;4.20;92.50;;;;;;6353600;22;20026;-78
2022/01/12 17:55:49;;;;;;;8.65;3.42;;;4.10;92.50;;;;;;6334901;22;20011;-78
2022/01/12 17:58:15;;;;;;;11.38;3.85;;;4.00;92.50;;;;;;6336560;22;20021;-78
2022/01/12 18:00:42;;;;;;;7.93;3.63;;;4.00;92.50;;;;;;6336238;22;20003;-79
2022/01/12 18:03:09;;;;;;;7.10;3.22;;;4.00;92.50;;;;;;6337909;22;20006;-80
2022/01/12 18:05:35;;;;;;;7.55;3.67;;;3.80;92.50;;;;;;6336272;22;20072;-78
2022/01/12 18:08:00;;;;;;;8.93;3.33;;;3.90;92.60;;;;;;6338104;22;20011;-79
2022/01/12 18:10:26;;;;;;;9.80;3.92;;;3.90;92.60;;;;;;6362772;22;20007;-80
2022/01/12 18:12:52;;;;;;;8.82;3.35;;;3.90;92.60;;;;;;6362250;22;20007;-81
2022/01/12 18:15:18;;;;;;;10.80;3.22;;;3.90;92.70;;;;;;6335944;22;20007;-80
2022/01/12 18:17:47;;;;;;;7.65;3.25;;;3.90;92.60;;;;;;6336157;22;20060;-78
2022/01/12 18:20:13;;;;;;;7.05;3.22;;;4.00;92.60;;;;;;6360149;22;20014;-78
2022/01/12 18:22:40;;;;;;;7.18;3.05;;;3.90;92.60;;;;;;6335910;22;19999;-78
2022/01/12 18:25:07;;;;;;;7.05;2.95;;;3.90;92.60;;;;;;6362374;22;20085;-79
2022/01/12 18:27:33;;;;;;;7.40;3.35;;;3.80;92.60;;;;;;6337749;22;20007;-78
2022/01/12 18:29:59;;;;;;;7.25;3.17;;;4.00;92.60;;;;;;6362277;22;20006;-78
2022/01/12 18:32:24;;;;;;;8.57;3.28;;;3.90;92.60;;;;;;6362659;22;20006;-78
2022/01/12 18:34:52;;;;;;;8.80;3.17;;;3.90;92.60;;;;;;6336066;22;20006;-78
2022/01/12 18:37:19;;;;;;;8.90;3.47;;;3.90;92.60;;;;;;6362326;22;20011;-78
2022/01/12 18:39:50;;;;;;;7.35;2.90;;;3.80;92.60;;;;;;6338240;22;20422;-78
2022/01/12 18:42:16;;;;;;;6.95;3.00;;;3.90;92.60;;;;;;6361635;22;20052;-78
2022/01/12 18:44:44;;;;;;;6.72;3.05;;;3.90;92.60;;;;;;6363088;22;20345;-78
2022/01/12 18:47:10;;;;;;;6.63;2.70;;;3.90;92.60;;;;;;6335837;22;20015;-79
2022/01/12 18:49:36;;;;;;;5.97;3.05;;;3.90;92.60;;;;;;6338545;22;20090;-79
2022/01/12 18:52:03;;;;;;;8.52;3.10;;;3.90;92.60;;;;;;6334767;22;20015;-79
2022/01/12 18:54:29;;;;;;;9.93;3.78;;;3.80;92.60;;;;;;6362514;22;20034;-78
2022/01/12 18:56:55;;;;;;;7.03;2.83;;;3.80;92.60;;;;;;6337413;22;20015;-78
2022/01/12 18:59:21;;;;;;;8.70;3.53;;;3.80;92.60;;;;;;6362224;22;20056;-79
2022/01/12 19:01:46;;;;;;;7.28;3.50;;;3.80;92.60;;;;;;6337566;22;19999;-78
2022/01/12 19:04:13;;;;;;;8.77;3.50;;;3.80;92.60;;;;;;6335816;22;20007;-78
2022/01/12 19:06:41;;;;;;;10.63;3.53;;;3.70;92.60;;;;;;6335817;22;20498;-79
2022/01/12 19:09:07;;;;;;;7.75;3.28;;;3.70;92.60;;;;;;6335946;22;20018;-78
2022/01/12 19:11:36;;;;;;;8.80;3.58;;;3.70;92.60;;;;;;6338115;22;20011;-78
2022/01/12 19:14:08;;;;;;;9.00;3.03;;;3.80;92.70;;;;;;6337986;22;20007;-78
2022/01/12 19:16:36;;;;;;;7.40;3.55;;;3.70;92.60;;;;;;6337485;22;20446;-78
2022/01/12 19:19:02;;;;;;;7.38;3.30;;;3.70;92.60;;;;;;6362518;22;20002;-78
2022/01/12 19:21:28;;;;;;;8.68;3.58;;;3.70;92.60;;;;;;6337644;22;20009;-78
2022/01/12 19:23:53;;;;;;;7.32;3.10;;;3.70;92.70;;;;;;6335598;22;20007;-78
2022/01/12 19:26:20;;;;;;;9.27;3.60;;;3.80;92.70;;;;;;6362265;22;20007;-79
2022/01/12 19:28:46;;;;;;;6.50;2.92;;;3.80;92.70;;;;;;6336151;22;20030;-79
2022/01/12 19:31:12;;;;;;;7.88;3.38;;;3.70;92.70;;;;;;6309571;22;20501;-80
2022/01/12 19:33:38;;;;;;;9.45;2.95;;;3.80;92.70;;;;;;6337230;22;20033;-80
2022/01/12 19:36:05;;;;;;;8.88;3.65;;;3.80;92.60;;;;;;6335835;22;20003;-80
2022/01/12 19:38:30;;;;;;;9.27;3.08;;;3.70;92.60;;;;;;6337699;22;20350;-80
2022/01/12 19:40:56;;;;;;;7.03;2.83;;;3.70;92.60;;;;;;6335590;22;20018;-80
2022/01/12 19:43:22;;;;;;;7.53;3.00;;;3.70;92.70;;;;;;6335924;22;20009;-80
2022/01/12 19:45:48;;;;;;;8.60;3.17;;;3.80;92.70;;;;;;6309634;22;20064;-80
2022/01/12 19:48:14;;;;;;;7.35;3.35;;;3.70;92.70;;;;;;6337331;22;20010;-80
2022/01/12 19:50:40;;;;;;;9.65;3.13;;;3.70;92.70;;;;;;6309618;22;20010;-80
2022/01/12 19:53:21;;;;;;;8.15;3.63;;;3.70;92.70;;;;;;6361960;22;20010;-81
2022/01/12 19:55:58;;;;;;;9.18;3.17;;;3.60;92.60;;;;;;6335689;22;20093;-81
2022/01/12 19:58:28;;;;;;;8.68;3.42;;;3.70;92.70;;;;;;6335731;22;20011;-80
2022/01/12 20:00:59;;;;;;;7.60;3.55;;;3.60;92.60;;;;;;6335694;22;20059;-81
2022/01/12 20:03:35;;;;;;;8.18;3.63;;;3.70;92.70;;;;;;6309719;22;20007;-80
2022/01/12 20:06:01;;;;;;;8.25;3.30;;;3.70;92.70;;;;;;6310234;22;20077;-81